Decoded Metar for KEET (ALABASTER in AL, USA) (IATA:EET) | Meteo·Mobile Aviation Weather
aviador You're here:

KEET Decoded Metar

ALABASTER in AL, USA
Report Time2018-10-20 12:53:00
UTC Time2018-10-20 13:21:35
Flight Rules vfr VFR
Wind310° at 07 kt
W.Decomp.*RWY 34: 6.2 kt HW 3.2 kt LCW
W.Rank310° ranks 5
Current wind is above 310° avg. (6.7)
Visibility9999 m
Phenomena:N/A
Clouds:Few 019 Hf
Scattered 027 Hf
Broken 032 Hf
Ceiling3,200 ft
Temp19°C (ISA +5)
Dew Point19°C (100% RH)
QNH1018 hPa
Density Alt1,293 ft
Elevation568 ft
Report Wrong Elevation
Raw Report
METAR KEET 201253Z AUTO 31007KT 8SM FEW019 SCT027 BKN032 19/19 A3005
RMK AO2 RAB14E30 SLP172 P0000 T01940189=

Extra information for KEET:More info

Metar Taf Metar & Taf Last 4 Metars F.Rules Stats Wind Profile Meteogram Temp Stats Airport Information Weather charts Add Link Nearby VenuesMetar ALERT Operation Metar Decoded Social comments

AIRNAV info for KEET